sensor_id;sensor_type;location;lat;lon;timestamp;pressure;altitude;pressure_sealevel;temperature;humidity
31011;BME280;26395;53.412;19.598;2023-02-28T00:13:45;101898.66;;;0.11;64.71
31011;BME280;26395;53.412;19.598;2023-02-28T00:28:52;101901.79;;;-0.10;64.73
31011;BME280;26395;53.412;19.598;2023-02-28T00:43:55;101905.44;;;-0.22;65.10
31011;BME280;26395;53.412;19.598;2023-02-28T00:58:59;101903.30;;;-0.28;65.34
31011;BME280;26395;53.412;19.598;2023-02-28T01:14:03;101897.90;;;-0.45;65.34
31011;BME280;26395;53.412;19.598;2023-02-28T01:29:07;101899.36;;;-0.50;65.46
31011;BME280;26395;53.412;19.598;2023-02-28T01:59:58;101902.95;;;-0.83;65.62
31011;BME280;26395;53.412;19.598;2023-02-28T02:15:15;101910.98;;;-0.92;66.00
31011;BME280;26395;53.412;19.598;2023-02-28T02:46:22;101913.45;;;-1.23;65.88
31011;BME280;26395;53.412;19.598;2023-02-28T03:01:28;101921.23;;;-1.27;65.99
31011;BME280;26395;53.412;19.598;2023-02-28T03:31:54;101924.06;;;-1.49;65.61
31011;BME280;26395;53.412;19.598;2023-02-28T03:47:00;101923.50;;;-1.60;65.98
31011;BME280;26395;53.412;19.598;2023-02-28T04:02:05;101923.80;;;-1.71;66.51
31011;BME280;26395;53.412;19.598;2023-02-28T04:17:09;101932.31;;;-1.65;66.60
31011;BME280;26395;53.412;19.598;2023-02-28T04:32:12;101945.48;;;-1.76;66.32
31011;BME280;26395;53.412;19.598;2023-02-28T04:47:16;101948.98;;;-1.84;66.16
31011;BME280;26395;53.412;19.598;2023-02-28T05:02:19;101944.41;;;-1.91;66.23
31011;BME280;26395;53.412;19.598;2023-02-28T05:17:24;101943.40;;;-1.93;66.73
31011;BME280;26395;53.412;19.598;2023-02-28T05:32:30;101931.34;;;-2.04;66.56
31011;BME280;26395;53.412;19.598;2023-02-28T05:47:34;101927.45;;;-2.11;66.94
31011;BME280;26395;53.412;19.598;2023-02-28T06:02:39;101930.44;;;-2.02;67.21
31011;BME280;26395;53.412;19.598;2023-02-28T06:17:44;101951.67;;;-1.97;66.87
31011;BME280;26395;53.412;19.598;2023-02-28T06:32:47;101968.59;;;-1.72;67.20
31011;BME280;26395;53.412;19.598;2023-02-28T06:47:52;101987.14;;;-0.97;67.77
31011;BME280;26395;53.412;19.598;2023-02-28T07:02:56;102006.21;;;0.39;68.16
31011;BME280;26395;53.412;19.598;2023-02-28T07:17:59;102013.84;;;1.57;67.64
31011;BME280;26395;53.412;19.598;2023-02-28T07:33:03;102002.76;;;2.50;67.21
31011;BME280;26395;53.412;19.598;2023-02-28T07:48:07;102006.79;;;3.39;67.44
31011;BME280;26395;53.412;19.598;2023-02-28T08:03:13;102002.45;;;4.52;66.94
31011;BME280;26395;53.412;19.598;2023-02-28T08:18:19;101982.56;;;5.66;66.39
31011;BME280;26395;53.412;19.598;2023-02-28T08:33:23;101968.17;;;6.17;64.97
31011;BME280;26395;53.412;19.598;2023-02-28T08:48:29;101971.88;;;7.10;64.12
31011;BME280;26395;53.412;19.598;2023-02-28T09:03:33;101959.02;;;7.83;62.10
31011;BME280;26395;53.412;19.598;2023-02-28T09:18:38;101963.46;;;8.43;60.64
31011;BME280;26395;53.412;19.598;2023-02-28T09:33:42;101972.52;;;8.87;58.26
31011;BME280;26395;53.412;19.598;2023-02-28T09:48:47;101985.40;;;9.00;56.00
31011;BME280;26395;53.412;19.598;2023-02-28T10:04:00;101978.77;;;9.35;53.98
31011;BME280;26395;53.412;19.598;2023-02-28T10:34:35;101948.95;;;9.92;51.69
31011;BME280;26395;53.412;19.598;2023-02-28T10:49:47;101934.67;;;10.36;51.04
31011;BME280;26395;53.412;19.598;2023-02-28T11:04:50;101934.44;;;10.80;49.93
31011;BME280;26395;53.412;19.598;2023-02-28T11:20:01;101924.48;;;11.56;49.28
31011;BME280;26395;53.412;19.598;2023-02-28T12:06:09;101903.63;;;12.84;46.34
31011;BME280;26395;53.412;19.598;2023-02-28T12:37:19;101866.06;;;12.84;43.09
31011;BME280;26395;53.412;19.598;2023-02-28T13:23:40;101823.86;;;14.32;43.44
31011;BME280;26395;53.412;19.598;2023-02-28T13:38:52;101802.61;;;14.68;42.70
31011;BME280;26395;53.412;19.598;2023-02-28T13:54:17;101787.90;;;19.73;40.16
31011;BME280;26395;53.412;19.598;2023-02-28T14:09:35;101782.70;;;25.68;35.07
31011;BME280;26395;53.412;19.598;2023-02-28T14:39:44;101764.73;;;26.28;31.43
31011;BME280;26395;53.412;19.598;2023-02-28T14:54:54;101753.48;;;25.87;30.73
31011;BME280;26395;53.412;19.598;2023-02-28T15:10:20;101754.19;;;25.47;32.12
31011;BME280;26395;53.412;19.598;2023-02-28T15:25:25;101736.81;;;19.06;33.63
31011;BME280;26395;53.412;19.598;2023-02-28T15:40:41;101733.07;;;15.02;37.43
31011;BME280;26395;53.412;19.598;2023-02-28T15:55:52;101734.60;;;19.23;36.84
31011;BME280;26395;53.412;19.598;2023-02-28T16:10:56;101737.27;;;18.54;36.14
31011;BME280;26395;53.412;19.598;2023-02-28T16:26:00;101724.27;;;13.53;39.12
31011;BME280;26395;53.412;19.598;2023-02-28T16:41:05;101734.80;;;10.28;42.41
31011;BME280;26395;53.412;19.598;2023-02-28T16:56:17;101717.84;;;8.29;44.70
31011;BME280;26395;53.412;19.598;2023-02-28T17:11:24;101705.42;;;7.25;46.74
31011;BME280;26395;53.412;19.598;2023-02-28T17:26:28;101695.31;;;6.63;48.27
31011;BME280;26395;53.412;19.598;2023-02-28T17:41:41;101704.52;;;6.23;49.43
31011;BME280;26395;53.412;19.598;2023-02-28T17:56:45;101701.33;;;5.86;50.07
31011;BME280;26395;53.412;19.598;2023-02-28T18:11:50;101685.59;;;5.14;51.59
31011;BME280;26395;53.412;19.598;2023-02-28T18:26:55;101701.77;;;5.08;52.52
31011;BME280;26395;53.412;19.598;2023-02-28T18:41:59;101699.06;;;4.95;52.87
31011;BME280;26395;53.412;19.598;2023-02-28T18:57:03;101695.45;;;4.68;53.22
31011;BME280;26395;53.412;19.598;2023-02-28T19:12:07;101720.30;;;4.49;53.83
31011;BME280;26395;53.412;19.598;2023-02-28T19:27:11;101727.70;;;4.19;54.27
31011;BME280;26395;53.412;19.598;2023-02-28T19:42:17;101715.80;;;4.03;54.82
31011;BME280;26395;53.412;19.598;2023-02-28T19:57:21;101709.30;;;3.73;55.53
31011;BME280;26395;53.412;19.598;2023-02-28T20:12:25;101721.35;;;3.56;55.96
31011;BME280;26395;53.412;19.598;2023-02-28T20:27:29;101713.34;;;3.38;56.38
31011;BME280;26395;53.412;19.598;2023-02-28T20:42:34;101722.75;;;3.26;56.87
31011;BME280;26395;53.412;19.598;2023-02-28T20:57:38;101714.90;;;3.23;57.04
31011;BME280;26395;53.412;19.598;2023-02-28T21:12:42;101698.39;;;3.20;57.66
31011;BME280;26395;53.412;19.598;2023-02-28T21:27:46;101705.96;;;2.95;57.88
31011;BME280;26395;53.412;19.598;2023-02-28T21:42:51;101702.80;;;2.65;59.06
31011;BME280;26395;53.412;19.598;2023-02-28T21:57:54;101669.46;;;2.43;59.33
31011;BME280;26395;53.412;19.598;2023-02-28T22:12:58;101666.06;;;2.41;59.53
31011;BME280;26395;53.412;19.598;2023-02-28T22:28:03;101658.59;;;2.43;60.01
31011;BME280;26395;53.412;19.598;2023-02-28T22:43:07;101666.79;;;2.51;59.98
31011;BME280;26395;53.412;19.598;2023-02-28T22:58:10;101669.52;;;2.58;60.50
31011;BME280;26395;53.412;19.598;2023-02-28T23:13:14;101659.72;;;2.51;62.03
31011;BME280;26395;53.412;19.598;2023-02-28T23:28:17;101659.63;;;2.48;62.33
31011;BME280;26395;53.412;19.598;2023-02-28T23:43:21;101655.27;;;2.50;62.19
31011;BME280;26395;53.412;19.598;2023-02-28T23:58:27;101653.23;;;2.27;62.48
